Time;durP1;ratioP1;P1;durP2;ratioP2;P2;SDS_P1;SDS_P2;PMS_P1;PMS_P2;Temp;Humidity;BMP_temperature;BMP_pressure;BME280_temperature;BME280_humidity;BME280_pressure;Samples;Min_cycle;Max_cycle;Signal;HPM_P1;HPM_P2
2021/10/08 00:01:57;;;;;;;20.77;13.88;;;;;;;8.29;100.00;101476.78;5035419;28;20046;-72
2021/10/08 00:04:24;;;;;;;21.88;13.60;;;;;;;8.22;100.00;101477.91;5047625;28;20048;-72
2021/10/08 00:06:51;;;;;;;20.95;13.38;;;;;;;8.22;100.00;101478.75;5056452;28;20049;-72
2021/10/08 00:09:18;;;;;;;20.40;13.40;;;;;;;8.16;100.00;101473.63;5056210;28;20406;-70
2021/10/08 00:11:45;;;;;;;22.65;13.82;;;;;;;8.23;100.00;101477.81;5056186;28;20045;-72
2021/10/08 00:14:14;;;;;;;20.02;13.02;;;;;;;8.19;100.00;101489.50;5055002;28;20049;-72
2021/10/08 00:16:41;;;;;;;20.42;13.32;;;;;;;8.14;100.00;101481.66;5038540;28;20076;-73
2021/10/08 00:19:08;;;;;;;16.75;12.05;;;;;;;8.15;100.00;101485.16;5054975;28;20059;-72
2021/10/08 00:21:35;;;;;;;19.00;12.68;;;;;;;8.11;100.00;101481.72;5045807;28;20091;-73
2021/10/08 00:24:02;;;;;;;19.13;12.40;;;;;;;8.15;100.00;101487.84;5035019;28;20048;-73
2021/10/08 00:26:28;;;;;;;20.38;12.82;;;;;;;8.09;100.00;101486.22;5036132;28;20046;-73
2021/10/08 00:28:55;;;;;;;19.70;13.25;;;;;;;8.10;100.00;101489.75;5037062;28;20052;-72
2021/10/08 00:31:22;;;;;;;18.23;12.55;;;;;;;8.12;100.00;101493.25;5055991;28;20048;-71
2021/10/08 00:33:49;;;;;;;18.30;11.93;;;;;;;7.99;100.00;101495.38;5042440;28;20069;-71
2021/10/08 00:36:16;;;;;;;16.65;12.57;;;;;;;7.97;100.00;101490.13;5047741;28;20053;-73
2021/10/08 00:38:43;;;;;;;16.73;11.55;;;;;;;7.98;100.00;101491.88;5054393;28;20045;-73
2021/10/08 00:41:13;;;;;;;16.00;12.10;;;;;;;8.00;100.00;101484.72;5034691;28;20103;-71
2021/10/08 00:43:40;;;;;;;18.52;12.25;;;;;;;7.97;100.00;101495.44;5034557;28;20072;-71
2021/10/08 00:46:07;;;;;;;17.48;11.90;;;;;;;7.91;100.00;101495.63;5035601;28;20053;-71
2021/10/08 00:48:34;;;;;;;17.88;11.45;;;;;;;7.87;100.00;101501.94;5035694;28;20378;-72
2021/10/08 00:51:01;;;;;;;18.30;12.73;;;;;;;7.87;100.00;101493.94;5034293;28;20081;-73
2021/10/08 00:53:28;;;;;;;18.27;12.13;;;;;;;7.85;100.00;101501.09;5034258;28;20119;-71
2021/10/08 00:55:55;;;;;;;16.90;11.48;;;;;;;7.87;100.00;101502.81;5034313;28;20107;-72
2021/10/08 00:58:22;;;;;;;15.65;11.20;;;;;;;7.84;100.00;101500.22;5034271;28;20044;-73
2021/10/08 01:00:51;;;;;;;18.63;12.07;;;;;;;7.83;100.00;101500.25;5034210;28;20124;-72
2021/10/08 01:03:21;;;;;;;21.83;11.98;;;;;;;7.83;100.00;101497.59;5034317;28;20091;-71
2021/10/08 01:05:49;;;;;;;20.20;12.30;;;;;;;7.83;100.00;101492.28;5018140;28;20096;-71
2021/10/08 01:08:16;;;;;;;17.95;12.13;;;;;;;7.81;100.00;101499.44;5035296;28;20049;-72
2021/10/08 01:10:45;;;;;;;17.17;11.85;;;;;;;7.77;100.00;101495.09;5034050;28;20060;-72
2021/10/08 01:13:16;;;;;;;22.25;12.02;;;;;;;7.74;100.00;101494.28;5018248;28;20111;-71
2021/10/08 01:15:45;;;;;;;16.08;11.77;;;;;;;7.73;100.00;101494.31;5018164;28;20049;-71
2021/10/08 01:18:12;;;;;;;17.98;11.40;;;;;;;7.73;100.00;101492.53;5017782;28;20140;-72
2021/10/08 01:20:40;;;;;;;15.82;10.68;;;;;;;7.69;100.00;101492.69;5017599;28;20572;-70
2021/10/08 01:23:12;;;;;;;15.93;11.07;;;;;;;7.71;100.00;101489.06;5034304;28;20092;-71
2021/10/08 01:25:49;;;;;;;18.05;11.05;;;;;;;7.65;100.00;101481.25;5035930;28;20037;-71
2021/10/08 01:28:19;;;;;;;20.52;11.40;;;;;;;7.69;100.00;101482.06;5053821;28;20049;-71
2021/10/08 01:30:47;;;;;;;18.23;11.25;;;;;;;7.69;100.00;101490.88;5053801;28;20095;-72
2021/10/08 01:33:16;;;;;;;16.35;11.80;;;;;;;7.67;100.00;101486.53;5054862;28;20037;-73
2021/10/08 01:35:49;;;;;;;16.27;10.30;;;;;;;7.64;100.00;101491.94;5053621;28;20115;-71
2021/10/08 01:38:16;;;;;;;14.20;9.95;;;;;;;7.62;100.00;101481.34;5053614;28;20053;-73
2021/10/08 01:40:43;;;;;;;16.60;11.43;;;;;;;7.55;100.00;101483.31;5036677;28;20048;-72
2021/10/08 01:43:17;;;;;;;19.15;10.90;;;;;;;7.55;100.00;101485.06;5018172;28;20046;-71
2021/10/08 01:45:46;;;;;;;18.52;11.23;;;;;;;7.57;100.00;101486.78;5032831;28;20517;-72
2021/10/08 01:48:19;;;;;;;16.83;11.07;;;;;;;7.46;100.00;101480.88;5033731;28;20041;-71
2021/10/08 01:50:46;;;;;;;19.40;12.00;;;;;;;7.50;100.00;101494.94;5017129;28;20076;-72
2021/10/08 01:53:14;;;;;;;17.15;12.20;;;;;;;7.46;100.00;101499.47;5033761;28;20053;-73
2021/10/08 01:55:45;;;;;;;17.33;10.57;;;;;;;7.48;100.00;101495.84;5033587;28;20037;-70
2021/10/08 01:58:12;;;;;;;18.50;12.02;;;;;;;7.46;100.00;101495.03;5036541;28;20521;-71
2021/10/08 02:00:41;;;;;;;21.15;11.75;;;;;;;7.48;100.00;101492.34;5021551;28;20053;-71
2021/10/08 02:03:29;;;;;;;17.83;11.38;;;;;;;7.41;100.00;101498.75;5038408;28;20061;-71
2021/10/08 02:05:57;;;;;;;15.88;10.90;;;;;;;7.41;100.00;101490.78;5038649;28;20061;-74
2021/10/08 02:08:25;;;;;;;22.80;11.75;;;;;;;7.39;100.00;101482.84;5037395;28;20038;-72
2021/10/08 02:10:56;;;;;;;21.15;10.82;;;;;;;7.38;100.00;101486.41;5037622;28;20627;-72
2021/10/08 02:13:24;;;;;;;16.20;11.02;;;;;;;7.41;100.00;101481.00;5021253;28;20041;-73
2021/10/08 02:15:51;;;;;;;15.93;10.57;;;;;;;7.33;100.00;101483.00;5020956;28;20041;-73
2021/10/08 02:18:19;;;;;;;14.93;11.07;;;;;;;7.32;100.00;101470.63;5037286;28;20141;-73
2021/10/08 02:20:47;;;;;;;17.83;10.52;;;;;;;7.27;100.00;101484.03;5020834;28;20060;-72
2021/10/08 02:23:15;;;;;;;16.55;10.57;;;;;;;7.29;100.00;101486.63;5037138;28;20132;-73
2021/10/08 02:25:45;;;;;;;17.88;10.93;;;;;;;7.25;100.00;101479.66;5022918;28;20139;-73
2021/10/08 02:28:12;;;;;;;16.88;10.15;;;;;;;7.27;100.00;101486.69;5058361;28;20059;-73
2021/10/08 02:30:40;;;;;;;18.38;10.82;;;;;;;7.27;100.00;101483.16;5056988;28;20147;-71
2021/10/08 02:33:07;;;;;;;17.95;10.10;;;;;;;7.18;100.00;101474.50;5056978;28;20521;-72
2021/10/08 02:35:34;;;;;;;15.60;10.43;;;;;;;7.16;100.00;101478.13;5056878;28;20053;-72
2021/10/08 02:38:08;;;;;;;18.40;10.80;;;;;;;7.19;100.00;101489.53;5041267;28;20446;-70
2021/10/08 02:40:35;;;;;;;15.95;9.55;;;;;;;7.18;100.00;101495.75;5040896;28;20046;-72
2021/10/08 02:43:02;;;;;;;21.50;10.55;;;;;;;7.19;100.00;101492.19;5038269;28;20049;-72
2021/10/08 02:45:30;;;;;;;17.15;10.48;;;;;;;7.22;100.00;101490.34;5020292;28;20053;-71
2021/10/08 02:47:57;;;;;;;14.63;10.18;;;;;;;7.18;100.00;101485.13;5036829;28;20121;-73
2021/10/08 02:50:26;;;;;;;16.85;9.93;;;;;;;7.15;100.00;101485.19;5036664;28;20037;-72
2021/10/08 02:52:54;;;;;;;13.90;9.18;;;;;;;7.15;100.00;101485.19;5020141;28;20073;-71
2021/10/08 02:55:22;;;;;;;18.27;10.00;;;;;;;7.14;100.00;101483.47;5036653;28;20096;-73
2021/10/08 02:57:49;;;;;;;16.90;9.48;;;;;;;7.14;100.00;101479.94;5020291;28;20061;-72
2021/10/08 03:00:17;;;;;;;16.15;9.35;;;;;;;7.15;100.00;101482.53;5036468;28;20053;-72
2021/10/08 03:02:45;;;;;;;14.35;9.75;;;;;;;7.14;100.00;101488.75;5037542;28;20660;-72
2021/10/08 03:05:12;;;;;;;13.60;10.10;;;;;;;7.13;100.00;101483.53;5036373;28;20053;-73
2021/10/08 03:07:40;;;;;;;13.98;9.35;;;;;;;7.11;100.00;101480.91;5019843;28;20053;-71
2021/10/08 03:10:11;;;;;;;16.20;9.90;;;;;;;7.09;100.00;101482.72;5035296;28;20053;-73
2021/10/08 03:12:42;;;;;;;14.73;9.82;;;;;;;7.02;100.00;101484.66;5036205;28;20049;-71
2021/10/08 03:15:09;;;;;;;11.93;8.95;;;;;;;7.02;100.00;101483.75;5037292;28;20048;-71
2021/10/08 03:17:39;;;;;;;;;;;;;;;7.06;100.00;101480.13;5037710;28;20041;-72
2021/10/08 03:20:08;;;;;;;12.43;8.85;;;;;;;7.04;100.00;101480.16;5036276;28;20269;-71
2021/10/08 03:22:36;;;;;;;15.38;9.52;;;;;;;7.07;100.00;101474.78;5036168;28;20056;-71
2021/10/08 03:25:07;;;;;;;12.35;8.77;;;;;;;7.07;100.00;101484.53;5049078;28;20039;-72
2021/10/08 03:27:36;;;;;;;17.83;8.98;;;;;;;7.03;100.00;101475.75;5056102;28;20319;-73
2021/10/08 03:30:05;;;;;;;15.73;9.38;;;;;;;7.05;100.00;101481.03;5055821;28;20351;-71
2021/10/08 03:32:35;;;;;;;18.20;9.32;;;;;;;7.07;100.00;101482.75;5055813;28;20126;-72
2021/10/08 03:35:03;;;;;;;14.63;8.93;;;;;;;7.08;100.00;101478.28;5056970;28;20037;-71
2021/10/08 03:38:14;;;;;;;15.05;9.15;;;;;;;7.13;100.00;101475.56;5055921;28;20127;-72
2021/10/08 03:40:28;;;;;;;12.77;9.07;;;;;;;7.10;100.00;101476.50;5037616;28;20049;-72
2021/10/08 03:43:01;;;;;;;14.40;8.98;;;;;;;7.10;100.00;101479.16;5035714;28;20076;-72
2021/10/08 03:45:35;;;;;;;18.95;10.77;;;;;;;7.05;100.00;101478.38;5035786;28;20140;-72
2021/10/08 03:50:30;;;;;;;14.20;9.23;;;;;;;7.01;100.00;101492.63;5035495;28;20053;-71
2021/10/08 03:52:58;;;;;;;14.23;9.25;;;;;;;7.03;100.00;101483.72;5036298;28;20075;-74
2021/10/08 03:55:26;;;;;;;14.13;9.70;;;;;;;7.00;100.00;101481.16;5036906;28;20046;-72
2021/10/08 03:57:52;;;;;;;13.25;9.38;;;;;;;7.02;100.00;101495.25;5036658;28;20041;-73
2021/10/08 04:00:20;;;;;;;15.07;10.20;;;;;;;6.97;100.00;101485.69;5039398;28;20398;-71
2021/10/08 04:02:57;;;;;;;15.40;9.55;;;;;;;6.93;100.00;101495.50;5053733;28;20073;-71
2021/10/08 04:05:26;;;;;;;16.13;9.63;;;;;;;6.90;100.00;101488.47;5055107;28;20041;-71
2021/10/08 04:07:53;;;;;;;15.48;9.15;;;;;;;6.86;100.00;101496.56;5038695;28;20097;-72
2021/10/08 04:10:25;;;;;;;14.15;9.35;;;;;;;6.86;100.00;101497.41;5055187;28;20068;-72
2021/10/08 04:12:52;;;;;;;17.65;9.32;;;;;;;6.86;100.00;101491.25;5056404;28;20403;-73
2021/10/08 04:15:19;;;;;;;15.27;10.00;;;;;;;6.84;100.00;101491.28;5054814;28;20083;-71
2021/10/08 04:17:47;;;;;;;11.98;9.02;;;;;;;6.78;100.00;101484.34;5054821;28;20446;-73
2021/10/08 04:20:15;;;;;;;19.50;10.23;;;;;;;6.79;100.00;101493.16;5054583;28;20464;-71
2021/10/08 04:22:43;;;;;;;14.80;9.50;;;;;;;6.79;100.00;101488.75;5055263;28;20049;-72
2021/10/08 04:25:10;;;;;;;14.60;9.60;;;;;;;6.81;100.00;101498.44;5041791;28;20048;-72
2021/10/08 04:27:38;;;;;;;15.63;9.75;;;;;;;6.80;100.00;101497.56;5034805;28;20077;-72
2021/10/08 04:30:06;;;;;;;14.68;9.68;;;;;;;6.79;100.00;101496.69;5035363;28;20084;-71
2021/10/08 04:32:38;;;;;;;13.48;9.02;;;;;;;6.75;100.00;101502.13;5055026;28;20055;-73
2021/10/08 04:35:06;;;;;;;13.55;9.25;;;;;;;6.72;100.00;101502.19;5054773;28;20041;-71
2021/10/08 04:37:33;;;;;;;13.88;9.18;;;;;;;6.71;100.00;101500.44;5038146;28;20055;-71
2021/10/08 04:40:00;;;;;;;16.67;9.63;;;;;;;6.71;100.00;101503.09;5055741;28;20049;-72
2021/10/08 04:42:28;;;;;;;16.48;9.45;;;;;;;6.66;100.00;101506.72;5038149;28;20353;-73
2021/10/08 04:44:56;;;;;;;14.52;10.35;;;;;;;6.72;100.00;101504.84;5054541;28;20086;-73
2021/10/08 04:47:23;;;;;;;16.25;10.10;;;;;;;6.69;100.00;101507.56;5051364;28;20454;-71
2021/10/08 04:49:50;;;;;;;14.50;9.27;;;;;;;6.72;100.00;101511.03;5054617;28;20049;-72
2021/10/08 04:52:18;;;;;;;12.30;9.05;;;;;;;6.66;100.00;101504.06;5055474;28;20049;-70
2021/10/08 04:54:46;;;;;;;14.00;9.23;;;;;;;6.68;100.00;101511.09;5054375;28;20148;-71
2021/10/08 04:57:13;;;;;;;17.88;9.85;;;;;;;6.58;100.00;101500.72;5054208;28;20512;-72
2021/10/08 04:59:40;;;;;;;12.52;9.07;;;;;;;6.61;100.00;101500.66;5037796;28;20500;-73
2021/10/08 05:02:07;;;;;;;16.33;9.18;;;;;;;6.59;100.00;101498.94;5046266;28;20111;-72
2021/10/08 05:04:34;;;;;;;14.73;9.38;;;;;;;6.58;100.00;101505.16;5017877;28;20049;-73
2021/10/08 05:07:02;;;;;;;14.13;8.98;;;;;;;6.56;100.00;101497.22;5034154;28;20080;-70
2021/10/08 05:09:29;;;;;;;12.82;8.60;;;;;;;6.53;100.00;101497.28;5033942;28;20072;-73
2021/10/08 05:11:57;;;;;;;17.98;9.40;;;;;;;6.51;100.00;101499.09;5037010;28;20056;-71
2021/10/08 05:14:25;;;;;;;11.27;8.55;;;;;;;6.59;100.00;101507.75;5053947;28;20066;-72
2021/10/08 05:16:52;;;;;;;13.43;8.95;;;;;;;6.54;100.00;101501.69;5055075;28;20445;-72
2021/10/08 05:19:19;;;;;;;12.68;8.85;;;;;;;6.58;100.00;101516.63;5037253;28;20045;-71
2021/10/08 05:21:54;;;;;;;12.18;9.02;;;;;;;6.54;100.00;101514.09;5053427;28;20040;-71
2021/10/08 05:24:23;;;;;;;12.30;9.00;;;;;;;6.53;100.00;101515.84;5038675;28;20045;-70
2021/10/08 05:26:51;;;;;;;12.98;8.48;;;;;;;6.53;100.00;101513.19;5053136;28;20065;-70
2021/10/08 05:29:18;;;;;;;12.43;8.68;;;;;;;6.55;100.00;101511.41;5036753;28;20366;-68
2021/10/08 05:31:46;;;;;;;17.05;9.55;;;;;;;6.53;100.00;101515.84;5035938;28;20108;-70
2021/10/08 05:34:13;;;;;;;13.85;9.00;;;;;;;6.54;100.00;101519.38;5053178;28;20102;-70
2021/10/08 05:36:41;;;;;;;13.10;8.65;;;;;;;6.51;100.00;101522.97;5036033;28;20041;-70
2021/10/08 05:39:08;;;;;;;21.42;9.02;;;;;;;6.50;100.00;101518.59;5053219;28;20125;-68
2021/10/08 05:41:36;;;;;;;12.18;8.02;;;;;;;6.51;100.00;101525.63;5051082;28;20051;-68
2021/10/08 05:44:03;;;;;;;12.13;8.20;;;;;;;6.50;100.00;101519.44;5042223;28;20431;-70
2021/10/08 05:46:30;;;;;;;14.40;8.98;;;;;;;6.47;100.00;101521.28;5036432;28;20051;-71
2021/10/08 05:48:57;;;;;;;16.00;8.70;;;;;;;6.43;100.00;101507.22;5036627;28;20045;-73
2021/10/08 05:51:24;;;;;;;12.00;8.15;;;;;;;6.50;100.00;101521.25;5052529;28;20067;-70
2021/10/08 05:53:51;;;;;;;15.43;8.35;;;;;;;6.55;100.00;101527.31;5020338;28;20045;-69
2021/10/08 05:56:18;;;;;;;13.95;8.82;;;;;;;6.49;100.00;101516.84;5051015;28;20041;-69
2021/10/08 05:58:45;;;;;;;13.05;8.40;;;;;;;6.61;100.00;101531.59;5046387;28;20056;-72
2021/10/08 06:01:12;;;;;;;12.68;7.90;;;;;;;6.59;100.00;101531.63;5046201;28;20341;-73
2021/10/08 06:03:39;;;;;;;12.70;8.20;;;;;;;6.56;100.00;101525.53;5047243;28;20041;-72
2021/10/08 06:06:06;;;;;;;11.82;8.05;;;;;;;6.62;100.00;101528.03;5036095;28;20053;-71
2021/10/08 06:08:34;;;;;;;10.95;7.75;;;;;;;6.64;100.00;101535.06;5036109;28;20339;-70
2021/10/08 06:11:01;;;;;;;10.48;8.30;;;;;;;6.63;100.00;101533.31;5069090;28;20049;-69
2021/10/08 06:13:28;;;;;;;11.82;7.57;;;;;;;6.69;100.00;101529.66;5031993;28;20053;-72
2021/10/08 06:15:55;;;;;;;11.13;9.25;;;;;;;6.70;100.00;101535.84;5041368;28;20084;-76
2021/10/08 06:18:23;;;;;;;11.43;8.35;;;;;;;6.76;100.00;101535.72;5050561;28;20037;-76
2021/10/08 06:20:50;;;;;;;14.50;8.35;;;;;;;6.77;100.00;101537.44;5031029;28;20080;-75
2021/10/08 06:23:18;;;;;;;14.60;8.32;;;;;;;6.85;100.00;101538.13;5051903;28;20056;-73
2021/10/08 06:25:44;;;;;;;15.30;8.32;;;;;;;6.88;100.00;101535.44;5047185;28;20033;-71
2021/10/08 06:28:11;;;;;;;13.30;8.23;;;;;;;6.89;100.00;101533.63;5048319;28;20102;-72
2021/10/08 06:30:38;;;;;;;12.43;8.30;;;;;;;6.99;100.00;101531.63;5036189;28;20049;-74
2021/10/08 06:33:06;;;;;;;16.02;8.68;;;;;;;7.03;100.00;101531.50;5033091;28;20056;-70
2021/10/08 06:35:33;;;;;;;17.30;8.00;;;;;;;7.09;100.00;101540.25;5032958;28;20071;-70
2021/10/08 06:38:02;;;;;;;11.63;8.20;;;;;;;7.18;100.00;101538.25;5036949;28;20049;-71
2021/10/08 06:40:30;;;;;;;15.48;8.52;;;;;;;7.30;100.00;101541.50;5053266;28;20036;-73
2021/10/08 06:42:59;;;;;;;16.35;8.68;;;;;;;7.38;100.00;101543.97;5053289;28;20388;-70
2021/10/08 06:45:37;;;;;;;12.73;8.18;;;;;;;7.44;100.00;101544.69;5052928;28;20041;-70
2021/10/08 06:48:06;;;;;;;15.15;9.10;;;;;;;7.58;100.00;101546.13;5054874;28;20041;-71
2021/10/08 06:50:35;;;;;;;14.82;9.13;;;;;;;7.69;100.00;101546.69;5029337;28;20042;-71
2021/10/08 06:53:03;;;;;;;14.77;9.75;;;;;;;7.81;100.00;101547.28;5054093;28;20048;-71
2021/10/08 06:55:30;;;;;;;17.70;9.88;;;;;;;7.87;100.00;101547.13;5055669;28;20588;-70
2021/10/08 06:57:59;;;;;;;15.23;9.68;;;;;;;8.03;100.00;101547.56;5054660;28;20056;-72
2021/10/08 07:00:27;;;;;;;20.45;10.90;;;;;;;8.06;100.00;101547.47;5054326;28;20405;-70
2021/10/08 07:02:57;;;;;;;18.33;10.15;;;;;;;8.10;100.00;101548.25;5038471;28;20037;-70
2021/10/08 07:05:32;;;;;;;18.33;10.88;;;;;;;8.15;100.00;101551.66;5054620;28;20047;-70
2021/10/08 07:08:01;;;;;;;19.10;11.65;;;;;;;8.22;100.00;101547.91;5055118;28;20045;-70
2021/10/08 07:10:29;;;;;;;17.83;12.35;;;;;;;8.39;100.00;101550.06;5055477;28;20462;-71
2021/10/08 07:12:56;;;;;;;19.77;10.93;;;;;;;8.42;100.00;101551.78;5039771;28;20041;-72
2021/10/08 07:15:23;;;;;;;17.63;12.43;;;;;;;8.46;100.00;101549.88;5057557;28;20136;-71
2021/10/08 07:17:53;;;;;;;20.60;12.15;;;;;;;8.58;100.00;101543.34;5057163;28;20049;-71
2021/10/08 07:20:22;;;;;;;21.00;11.95;;;;;;;8.66;100.00;101552.00;5056376;28;20111;-71
2021/10/08 07:22:50;;;;;;;18.58;12.20;;;;;;;8.65;100.00;101540.47;5052106;28;20049;-71
2021/10/08 07:25:18;;;;;;;21.95;12.15;;;;;;;8.76;100.00;101548.13;5050824;28;20044;-71
2021/10/08 07:27:46;;;;;;;20.02;11.98;;;;;;;8.76;100.00;101542.78;5056840;28;20437;-70
2021/10/08 07:30:14;;;;;;;21.27;11.63;;;;;;;8.78;100.00;101543.59;5053887;28;20048;-70
2021/10/08 07:32:41;;;;;;;23.38;12.02;;;;;;;8.82;100.00;101549.72;5057077;28;20678;-71
2021/10/08 07:35:09;;;;;;;24.55;11.65;;;;;;;8.90;100.00;101550.38;5056935;28;20048;-75
2021/10/08 07:37:37;;;;;;;17.73;11.20;;;;;;;8.94;100.00;101556.47;5048550;28;20040;-76
2021/10/08 07:40:06;;;;;;;19.02;10.95;;;;;;;9.00;100.00;101558.94;5046951;28;20110;-79
2021/10/08 07:42:34;;;;;;;13.95;10.45;;;;;;;8.96;100.00;101559.94;5045194;28;20128;-74
2021/10/08 07:45:09;;;;;;;16.67;10.75;;;;;;;8.97;100.00;101567.00;5036843;28;20065;-75
2021/10/08 07:47:36;;;;;;;22.63;11.48;;;;;;;9.09;100.00;101565.72;5039053;28;20041;-70
2021/10/08 07:50:05;;;;;;;20.48;11.63;;;;;;;9.12;100.00;101562.09;5056407;28;20089;-73
2021/10/08 07:52:31;;;;;;;19.83;10.98;;;;;;;9.15;100.00;101564.69;5055470;28;20061;-69
2021/10/08 07:54:58;;;;;;;14.70;11.00;;;;;;;9.23;100.00;101565.28;5051552;28;20056;-68
2021/10/08 07:57:25;;;;;;;16.30;11.02;;;;;;;9.35;100.00;101567.56;5055988;28;20033;-68
2021/10/08 07:59:52;;;;;;;15.13;11.23;;;;;;;9.48;100.00;101559.16;5055935;28;20343;-69
2021/10/08 08:02:18;;;;;;;16.23;11.15;;;;;;;9.53;100.00;101559.84;5056576;28;20041;-68
2021/10/08 08:04:45;;;;;;;17.60;10.88;;;;;;;9.61;100.00;101567.59;5056253;28;20049;-69
2021/10/08 08:07:12;;;;;;;15.05;10.45;;;;;;;9.64;100.00;101559.47;5056116;28;20429;-68
2021/10/08 08:09:39;;;;;;;19.80;10.55;;;;;;;9.81;100.00;101563.38;5056438;28;20049;-68
2021/10/08 08:12:06;;;;;;;22.42;10.80;;;;;;;9.85;100.00;101562.31;5054728;28;20091;-69
2021/10/08 08:14:33;;;;;;;16.08;10.57;;;;;;;10.04;100.00;101557.22;5056244;28;20068;-68
2021/10/08 08:16:59;;;;;;;15.93;10.80;;;;;;;10.10;100.00;101562.31;5054641;28;20045;-70
2021/10/08 08:19:26;;;;;;;13.43;9.50;;;;;;;10.21;100.00;101561.94;5055118;28;20041;-69
2021/10/08 08:21:53;;;;;;;15.13;10.20;;;;;;;10.28;100.00;101563.44;5055967;28;20119;-67
2021/10/08 08:24:20;;;;;;;16.85;9.73;;;;;;;10.39;100.00;101568.38;5049010;28;20064;-69
2021/10/08 08:26:46;;;;;;;14.30;10.30;;;;;;;10.41;100.00;101566.50;5034958;28;20037;-68
2021/10/08 08:29:13;;;;;;;12.57;8.98;;;;;;;10.60;100.00;101563.19;5035661;28;20069;-70
2021/10/08 08:31:41;;;;;;;14.38;9.15;;;;;;;10.64;100.00;101563.94;5035993;28;20049;-69
2021/10/08 08:34:08;;;;;;;16.35;9.60;;;;;;;10.78;99.15;101564.25;5035830;28;20072;-69
2021/10/08 08:36:35;;;;;;;13.32;8.07;;;;;;;10.98;97.85;101560.81;5052050;28;20056;-69
2021/10/08 08:39:07;;;;;;;16.70;8.55;;;;;;;11.10;96.19;101561.22;5053200;28;20053;-68
2021/10/08 08:41:34;;;;;;;13.38;8.02;;;;;;;11.17;96.85;101562.72;5038258;28;20070;-68
2021/10/08 08:44:02;;;;;;;12.20;8.77;;;;;;;11.19;97.56;101570.66;5053481;28;20107;-70
2021/10/08 08:46:29;;;;;;;13.10;9.00;;;;;;;11.21;97.43;101574.13;5053371;28;20048;-70
2021/10/08 08:48:59;;;;;;;16.27;9.30;;;;;;;11.27;97.24;101561.41;5052881;28;20051;-68
2021/10/08 08:51:26;;;;;;;11.73;8.85;;;;;;;11.34;97.60;101566.50;5054468;28;20045;-68
2021/10/08 08:53:57;;;;;;;15.85;9.48;;;;;;;11.46;98.58;101573.13;5055666;28;20441;-70
2021/10/08 08:56:25;;;;;;;19.13;10.05;;;;;;;11.59;97.16;101571.69;5054188;28;20079;-69
2021/10/08 08:59:04;;;;;;;15.80;10.73;;;;;;;11.68;96.70;101567.75;5055240;28;20057;-68
2021/10/08 09:01:32;;;;;;;15.82;10.68;;;;;;;11.74;95.45;101563.94;5055254;28;20041;-69
2021/10/08 09:04:07;;;;;;;18.20;9.93;;;;;;;11.84;95.17;101569.75;5049353;28;20054;-70
2021/10/08 09:06:38;;;;;;;14.18;9.57;;;;;;;11.92;94.63;101576.50;5033742;28;20098;-68
2021/10/08 09:09:19;;;;;;;14.25;9.85;;;;;;;12.08;93.86;101578.53;5037690;28;20055;-69
2021/10/08 09:11:48;;;;;;;13.23;9.07;;;;;;;12.16;92.86;101572.84;5054144;28;20045;-69
2021/10/08 09:14:16;;;;;;;14.63;8.57;;;;;;;12.26;92.12;101570.63;5055023;28;20052;-69
2021/10/08 09:17:05;;;;;;;18.25;8.70;;;;;;;12.38;91.75;101578.09;5040019;28;20423;-68
2021/10/08 09:20:02;;;;;;;16.13;7.47;;;;;;;12.54;89.76;101572.91;5035181;28;20088;-72
2021/10/08 09:22:39;;;;;;;13.23;7.45;;;;;;;12.67;89.71;101572.28;5034068;28;20065;-71
2021/10/08 09:25:22;;;;;;;11.10;6.63;;;;;;;12.65;89.99;101563.47;5044412;28;20453;-69
2021/10/08 09:27:52;;;;;;;14.02;7.20;;;;;;;12.74;90.00;101557.66;5023988;28;20054;-69
2021/10/08 09:30:19;;;;;;;13.27;7.10;;;;;;;12.82;89.10;101554.63;5053423;28;20045;-70
2021/10/08 09:32:50;;;;;;;10.77;5.93;;;;;;;12.94;89.35;101561.19;5054388;28;20433;-70
2021/10/08 09:35:20;;;;;;;9.50;6.22;;;;;;;13.01;88.44;101570.69;5036822;28;20064;-71
2021/10/08 09:37:56;;;;;;;10.25;6.72;;;;;;;13.07;87.66;101565.03;5035655;28;20102;-70
2021/10/08 09:40:37;;;;;;;7.47;5.70;;;;;;;13.20;87.92;101564.41;5033372;28;20037;-70
2021/10/08 09:43:09;;;;;;;9.23;6.70;;;;;;;13.32;85.39;101561.13;5053329;28;20049;-70
2021/10/08 09:45:50;;;;;;;16.17;6.43;;;;;;;13.42;85.09;101559.69;5054685;28;20077;-70
2021/10/08 09:48:18;;;;;;;8.57;5.22;;;;;;;13.43;85.07;101550.75;5044555;28;20610;-71
2021/10/08 09:51:05;;;;;;;10.63;5.97;;;;;;;13.50;83.35;101562.03;5033732;28;20073;-69
2021/10/08 09:53:34;;;;;;;8.73;6.07;;;;;;;13.60;83.37;101564.25;5033394;28;20061;-69
2021/10/08 09:56:01;;;;;;;13.32;5.55;;;;;;;13.68;84.01;101570.94;5034531;28;20049;-70
2021/10/08 09:58:52;;;;;;;11.98;6.55;;;;;;;13.76;83.19;101569.69;5034405;28;20077;-70
2021/10/08 10:01:30;;;;;;;10.80;6.63;;;;;;;13.74;81.94;101560.84;5034070;28;20049;-70
2021/10/08 10:03:57;;;;;;;10.60;6.72;;;;;;;13.89;82.39;101565.41;5033461;28;20041;-70
2021/10/08 10:06:24;;;;;;;10.65;6.88;;;;;;;13.92;82.01;101564.38;5033598;28;20041;-70
2021/10/08 10:08:51;;;;;;;10.15;6.55;;;;;;;14.10;82.42;101573.28;5034391;28;20084;-70
2021/10/08 10:11:24;;;;;;;9.68;6.28;;;;;;;14.13;81.30;101567.75;5033559;28;20048;-70
2021/10/08 10:13:57;;;;;;;10.55;6.03;;;;;;;14.24;81.23;101567.19;5034582;28;20128;-69
2021/10/08 10:16:25;;;;;;;13.02;6.07;;;;;;;14.32;80.45;101575.69;5034839;28;20049;-69
2021/10/08 10:18:54;;;;;;;9.50;6.15;;;;;;;14.38;79.72;101558.34;5036849;28;20388;-68
2021/10/08 10:21:27;;;;;;;8.88;6.03;;;;;;;14.42;80.25;101568.00;5020877;28;20049;-75
2021/10/08 10:23:59;;;;;;;11.45;6.15;;;;;;;14.55;80.89;101567.31;5040350;28;20454;-69
2021/10/08 10:26:28;;;;;;;7.68;5.53;;;;;;;14.73;80.14;101562.72;5056919;28;20037;-70
2021/10/08 10:28:55;;;;;;;7.05;5.57;;;;;;;14.77;79.48;101570.56;5048703;28;20049;-69
2021/10/08 10:31:23;;;;;;;18.52;7.28;;;;;;;14.85;79.13;101567.44;5020704;28;20041;-69
2021/10/08 10:33:54;;;;;;;8.82;6.20;;;;;;;14.94;77.40;101558.84;5020397;28;20049;-69
2021/10/08 10:36:22;;;;;;;9.50;5.38;;;;;;;15.03;76.35;101562.84;5038031;28;20128;-69
2021/10/08 10:38:50;;;;;;;11.55;5.85;;;;;;;15.09;76.40;101553.53;5036650;28;20054;-70
2021/10/08 10:41:17;;;;;;;7.38;4.82;;;;;;;15.16;76.12;101564.81;5020797;28;20053;-71
2021/10/08 10:43:48;;;;;;;10.02;4.97;;;;;;;15.27;75.06;101561.50;5038108;28;20049;-68
2021/10/08 10:46:48;;;;;;;;;;;;;;;15.34;76.00;101558.38;5055901;28;20107;-68
2021/10/08 10:51:58;;;;;;;6.40;5.60;;;;;;;15.67;75.33;101558.25;5057511;28;20056;-75
2021/10/08 10:54:34;;;;;;;8.02;5.63;;;;;;;15.69;72.32;101556.38;5057429;28;20051;-70
2021/10/08 10:57:02;;;;;;;10.30;6.75;;;;;;;15.53;71.93;101551.03;5057525;28;20049;-71
2021/10/08 10:59:31;;;;;;;9.45;6.13;;;;;;;15.59;73.55;101556.91;5057386;28;20087;-69
2021/10/08 11:04:43;;;;;;;13.18;7.35;;;;;;;15.67;72.91;101551.06;5056984;28;20065;-69
2021/10/08 11:07:11;;;;;;;12.77;7.75;;;;;;;15.82;72.81;101551.97;5056865;28;20055;-70
2021/10/08 11:09:39;;;;;;;10.52;7.15;;;;;;;15.90;73.28;101548.78;5056852;28;20049;-70
2021/10/08 11:12:40;;;;;;;9.45;6.70;;;;;;;16.07;70.43;101544.22;5055816;28;20430;-69
2021/10/08 11:15:19;;;;;;;6.95;6.18;;;;;;;16.20;70.97;101547.00;5023643;28;20040;-70
2021/10/08 11:17:54;;;;;;;;;;;;;;;16.31;70.71;101540.94;5056246;28;20361;-70
2021/10/08 11:20:30;;;;;;;11.88;7.07;;;;;;;16.40;68.73;101535.00;5055479;28;19931;-72
2021/10/08 11:23:05;;;;;;;11.88;6.22;;;;;;;16.43;69.65;101537.47;5054812;28;20044;-69
2021/10/08 11:25:34;;;;;;;7.97;6.40;;;;;;;16.52;69.85;101527.94;5023209;28;20382;-69
2021/10/08 11:28:01;;;;;;;8.82;6.35;;;;;;;16.70;67.46;101521.38;5044030;28;20072;-69
2021/10/08 11:30:29;;;;;;;6.63;5.88;;;;;;;16.77;68.46;101524.50;5045189;28;20041;-69
2021/10/08 11:32:57;;;;;;;10.10;6.85;;;;;;;16.75;67.45;101528.25;5055976;28;20051;-71